Time;durP1;ratioP1;P1;durP2;ratioP2;P2;SDS_P1;SDS_P2;PMS_P1;PMS_P2;Temp;Humidity;BMP_temperature;BMP_pressure;BME280_temperature;BME280_humidity;BME280_pressure;Samples;Min_cycle;Max_cycle;Signal;HPM_P1;HPM_P2
2023/08/21 00:00:08;;;;;;;17.10;4.22;;;15.80;99.90;;;14.89;100.00;101823.13;4972804;28;20032;-76
2023/08/21 00:02:33;;;;;;;17.65;4.38;;;15.80;99.90;;;14.89;100.00;101823.13;4945258;28;20027;-76
2023/08/21 00:04:59;;;;;;;13.90;4.13;;;15.80;99.90;;;14.91;100.00;101823.06;4969255;23;20058;-73
2023/08/21 00:07:25;;;;;;;14.20;4.15;;;15.80;99.90;;;14.91;100.00;101825.72;4994518;28;20510;-72
2023/08/21 00:09:51;;;;;;;17.48;3.78;;;15.90;99.90;;;14.91;100.00;101823.06;4976470;28;20062;-73
2023/08/21 00:12:16;;;;;;;21.38;4.55;;;15.80;99.90;;;14.88;100.00;101821.41;4979329;28;20038;-72
2023/08/21 00:14:42;;;;;;;17.05;4.00;;;15.80;99.90;;;14.89;100.00;101823.13;4996492;28;20035;-72
2023/08/21 00:17:08;;;;;;;17.92;3.95;;;15.80;99.90;;;14.89;100.00;101817.81;4981132;28;20475;-75
2023/08/21 00:19:34;;;;;;;9.85;3.20;;;15.90;99.90;;;14.91;100.00;101815.09;4980488;28;20030;-75
2023/08/21 00:22:00;;;;;;;10.98;1.80;;;15.80;99.90;;;14.89;100.00;101823.13;4961300;28;20118;-75
2023/08/21 00:24:26;;;;;;;11.88;2.22;;;15.80;99.90;;;14.87;100.00;101817.03;4961234;28;20106;-74
2023/08/21 00:26:54;;;;;;;16.52;3.22;;;15.80;99.90;;;14.87;100.00;101818.81;4960957;28;20022;-74
2023/08/21 00:29:20;;;;;;;15.23;4.47;;;15.80;99.90;;;14.85;100.00;101813.59;4981952;28;20125;-73
2023/08/21 00:31:46;;;;;;;10.38;2.58;;;15.80;99.90;;;14.81;100.00;101817.31;4982294;28;20550;-74
2023/08/21 00:34:12;;;;;;;21.05;4.57;;;15.70;99.90;;;14.83;100.00;101811.94;4951204;28;20117;-73
2023/08/21 00:36:37;;;;;;;7.53;2.17;;;15.80;99.90;;;14.84;100.00;101818.94;4977966;28;20462;-74
2023/08/21 00:39:03;;;;;;;11.32;3.75;;;15.80;99.90;;;14.87;100.00;101818.81;4980999;28;20167;-74
2023/08/21 00:41:29;;;;;;;19.38;4.40;;;15.80;99.90;;;14.92;100.00;101817.69;4948247;28;20606;-74
2023/08/21 00:43:55;;;;;;;14.55;4.18;;;15.80;99.90;;;14.95;100.00;101814.88;4961839;28;20409;-74
2023/08/21 00:46:21;;;;;;;19.05;3.58;;;15.90;99.90;;;14.98;100.00;101816.53;4980243;28;20072;-74
2023/08/21 00:48:47;;;;;;;13.23;3.65;;;15.90;99.90;;;15.01;100.00;101820.81;4963366;28;20065;-74
2023/08/21 00:51:16;;;;;;;11.32;3.25;;;15.90;99.90;;;15.07;100.00;101820.53;4961967;28;20045;-73
2023/08/21 00:53:42;;;;;;;15.27;4.20;;;16.00;99.90;;;15.12;100.00;101823.84;4962004;28;20031;-75
2023/08/21 00:56:08;;;;;;;12.65;4.15;;;16.00;99.90;;;15.14;100.00;101816.63;4995421;28;20049;-74
2023/08/21 00:58:34;;;;;;;17.30;4.10;;;16.00;99.90;;;15.17;100.00;101813.84;4961019;28;20046;-74
2023/08/21 01:01:00;;;;;;;11.52;3.30;;;16.10;99.90;;;15.19;100.00;101819.94;4961423;28;20038;-73
2023/08/21 01:03:28;;;;;;;19.65;3.85;;;16.10;99.90;;;15.18;100.00;101820.84;4963141;28;20030;-73
2023/08/21 01:05:55;;;;;;;13.18;3.60;;;16.10;99.90;;;15.20;100.00;101815.50;4979966;28;20034;-74
2023/08/21 01:08:51;;;;;;;13.13;3.17;;;16.10;99.90;;;15.22;100.00;101821.56;4963536;28;20458;-74
2023/08/21 01:11:38;;;;;;;15.02;3.75;;;16.10;99.90;;;15.20;100.00;101812.84;4977081;28;20023;-73
2023/08/21 01:14:28;;;;;;;14.57;4.72;;;16.10;99.90;;;15.19;100.00;101817.28;4963642;28;20151;-73
2023/08/21 01:16:59;;;;;;;15.07;4.15;;;16.10;99.90;;;15.20;100.00;101824.28;4966148;28;20105;-73
2023/08/21 01:19:44;;;;;;;19.65;4.75;;;16.10;99.90;;;15.20;100.00;101813.69;4947078;28;20046;-73
2023/08/21 01:22:09;;;;;;;20.05;4.75;;;16.10;99.90;;;15.17;100.00;101816.50;4960844;28;20041;-74
2023/08/21 01:24:35;;;;;;;23.85;5.13;;;16.10;99.90;;;15.16;100.00;101822.72;4962001;28;20407;-74
2023/08/21 01:27:02;;;;;;;12.85;3.83;;;16.10;99.90;;;15.14;100.00;101814.88;4968436;28;20030;-73
2023/08/21 01:29:28;;;;;;;12.70;3.22;;;16.00;99.90;;;15.12;100.00;101823.84;4959617;28;20108;-74
2023/08/21 01:32:09;;;;;;;10.13;3.28;;;16.10;99.90;;;15.10;100.00;101826.56;4962816;28;20080;-73
2023/08/21 01:34:38;;;;;;;15.95;4.53;;;16.00;99.90;;;15.13;100.00;101825.53;4979226;28;20038;-73
2023/08/21 01:37:07;;;;;;;15.38;3.92;;;16.10;99.90;;;15.17;100.00;101830.63;4960891;28;21139;-73
2023/08/21 01:39:33;;;;;;;12.15;3.05;;;16.10;99.90;;;15.24;100.00;101819.72;4961562;28;20034;-73
2023/08/21 01:41:59;;;;;;;15.45;4.68;;;16.10;99.90;;;15.31;100.00;101819.34;4961463;28;20526;-74
2023/08/21 01:44:26;;;;;;;21.77;5.22;;;16.20;99.90;;;15.36;100.00;101821.78;4976010;28;20033;-74
2023/08/21 01:46:53;;;;;;;26.85;5.40;;;16.20;99.90;;;15.42;100.00;101828.56;4976708;28;20022;-73
2023/08/21 01:49:19;;;;;;;27.58;5.45;;;16.30;99.90;;;15.46;100.00;101812.41;4961514;28;20085;-74
2023/08/21 01:51:46;;;;;;;30.38;5.68;;;16.40;99.90;;;15.51;100.00;101815.69;4962796;28;20026;-73
2023/08/21 01:54:12;;;;;;;19.63;5.50;;;16.40;99.90;;;15.53;100.00;101820.94;4979443;28;20035;-73
2023/08/21 01:56:37;;;;;;;24.10;4.25;;;16.40;99.90;;;15.53;100.00;101820.94;4959600;28;20080;-74
2023/08/21 01:59:06;;;;;;;20.88;4.25;;;16.40;99.90;;;15.56;100.00;101820.78;4977839;28;20027;-74
2023/08/21 02:01:32;;;;;;;24.27;3.80;;;16.40;99.90;;;15.58;100.00;101816.25;4961339;28;20056;-74
2023/08/21 02:03:57;;;;;;;24.08;4.30;;;16.40;99.90;;;15.58;100.00;101817.09;4959949;28;20036;-73
2023/08/21 02:06:23;;;;;;;22.38;4.38;;;16.50;99.90;;;15.58;100.00;101817.09;4963453;28;20073;-73
2023/08/21 02:08:49;;;;;;;21.98;4.47;;;16.50;99.90;;;15.58;100.00;101813.59;4960478;28;20128;-74
2023/08/21 02:11:15;;;;;;;21.05;4.45;;;16.50;99.90;;;15.58;100.00;101811.78;4977796;28;20111;-74
2023/08/21 02:13:41;;;;;;;17.42;4.47;;;16.50;99.90;;;15.57;100.00;101819.81;4960983;28;20390;-73
2023/08/21 02:16:07;;;;;;;31.75;4.43;;;16.50;99.90;;;15.55;100.00;101819.94;4962914;28;20101;-74
2023/08/21 02:18:33;;;;;;;13.75;4.47;;;16.40;99.90;;;15.53;100.00;101821.78;4979334;28;20034;-74
2023/08/21 02:21:03;;;;;;;21.65;3.90;;;16.40;99.90;;;15.49;100.00;101808.75;4958573;28;20054;-74
2023/08/21 02:23:29;;;;;;;14.55;3.90;;;16.40;99.90;;;15.43;100.00;101807.25;4961108;28;20461;-74
2023/08/21 02:25:56;;;;;;;19.92;4.78;;;16.30;99.90;;;15.37;100.00;101802.25;4977517;28;20046;-74
2023/08/21 02:28:22;;;;;;;14.55;3.90;;;16.30;99.90;;;15.30;100.00;101807.00;4979134;28;20193;-74
2023/08/21 02:30:48;;;;;;;16.27;4.10;;;16.20;99.90;;;15.24;100.00;101807.31;4963806;28;20647;-74
2023/08/21 02:33:13;;;;;;;15.95;3.03;;;16.10;99.90;;;15.18;100.00;101815.56;4959278;28;20473;-73
2023/08/21 02:35:39;;;;;;;16.75;3.60;;;16.10;99.90;;;15.11;100.00;101822.09;4976488;28;20039;-74
2023/08/21 02:38:05;;;;;;;11.80;2.67;;;16.00;99.90;;;15.09;100.00;101816.00;4961878;28;20054;-73
2023/08/21 02:40:31;;;;;;;14.60;3.28;;;16.00;99.90;;;15.06;100.00;101818.81;4956692;28;20054;-73
2023/08/21 02:42:57;;;;;;;15.13;3.00;;;15.90;99.90;;;14.99;100.00;101820.91;4979780;28;20117;-74
2023/08/21 02:45:23;;;;;;;11.50;2.75;;;15.90;99.90;;;14.82;100.00;101811.09;4960962;28;20414;-74
2023/08/21 02:47:49;;;;;;;7.93;1.67;;;15.80;99.90;;;14.84;100.00;101809.22;4975517;28;20023;-74
2023/08/21 02:50:15;;;;;;;13.43;2.30;;;15.80;99.90;;;14.86;100.00;101814.44;4977805;28;20166;-74
2023/08/21 02:52:41;;;;;;;12.30;2.63;;;15.80;99.90;;;14.89;100.00;101806.34;4960941;28;20041;-74
2023/08/21 02:55:07;;;;;;;14.80;4.22;;;15.80;99.90;;;14.93;100.00;101808.78;4942839;28;20039;-75
2023/08/21 02:57:33;;;;;;;24.45;4.75;;;15.80;99.90;;;14.94;100.00;101805.19;4990899;28;20038;-74
2023/08/21 02:59:59;;;;;;;19.65;4.90;;;15.90;99.90;;;14.97;100.00;101805.06;4943700;28;20039;-74
2023/08/21 03:02:25;;;;;;;15.48;4.47;;;15.90;99.90;;;15.02;100.00;101802.19;4978705;28;20038;-74
2023/08/21 03:04:52;;;;;;;15.10;3.88;;;15.90;99.90;;;15.07;100.00;101801.97;4961166;28;20081;-74
2023/08/21 03:07:21;;;;;;;18.80;4.10;;;16.00;99.90;;;15.12;100.00;101800.81;4959206;28;20030;-73
2023/08/21 03:09:49;;;;;;;19.70;4.13;;;16.00;99.90;;;15.19;100.00;101806.69;4961773;28;20019;-75
2023/08/21 03:12:17;;;;;;;19.23;4.30;;;16.10;99.90;;;15.26;100.00;101807.22;4976857;28;20038;-74
2023/08/21 03:14:43;;;;;;;13.20;3.63;;;16.10;99.90;;;15.29;100.00;101810.59;4959112;28;20046;-74
2023/08/21 03:17:09;;;;;;;15.23;3.42;;;16.20;99.90;;;15.32;100.00;101813.09;4979164;28;20057;-74
2023/08/21 03:19:35;;;;;;;23.02;4.10;;;16.20;99.90;;;15.34;100.00;101799.75;4976883;28;20031;-74
2023/08/21 03:22:00;;;;;;;14.90;4.30;;;16.20;99.90;;;15.31;100.00;101798.13;4976772;28;20114;-74
2023/08/21 03:24:26;;;;;;;11.25;3.50;;;16.10;99.90;;;15.23;100.00;101802.09;4953362;23;20566;-75
2023/08/21 03:26:52;;;;;;;16.83;4.45;;;16.10;99.90;;;15.14;100.00;101808.69;4922520;29;20127;-74
2023/08/21 03:29:17;;;;;;;16.38;3.58;;;16.10;99.90;;;15.12;100.00;101806.13;4924382;29;20036;-74
2023/08/21 03:31:49;;;;;;;24.17;4.75;;;16.00;99.90;;;15.13;100.00;101806.97;4912917;29;20111;-74
2023/08/21 03:34:15;;;;;;;23.83;4.65;;;16.10;99.90;;;15.15;100.00;101807.75;4930436;29;20073;-75
2023/08/21 03:36:40;;;;;;;16.02;4.25;;;16.10;99.90;;;15.17;100.00;101808.53;4921221;29;20118;-75
2023/08/21 03:39:06;;;;;;;17.38;3.60;;;16.10;99.90;;;15.20;100.00;101804.88;4940475;29;20059;-74
2023/08/21 03:41:34;;;;;;;22.20;5.22;;;16.10;99.90;;;15.24;100.00;101796.69;4924344;29;20106;-74
2023/08/21 03:44:00;;;;;;;16.75;4.57;;;16.10;99.90;;;15.28;100.00;101792.09;4917662;29;20040;-74
2023/08/21 03:46:26;;;;;;;17.38;3.65;;;16.10;99.90;;;15.30;100.00;101799.03;4919794;29;20055;-74
2023/08/21 03:48:52;;;;;;;12.52;3.72;;;16.20;99.90;;;15.29;100.00;101794.69;4937802;29;20023;-74
2023/08/21 03:51:18;;;;;;;17.75;4.85;;;16.20;99.90;;;15.31;100.00;101792.81;4938337;29;20050;-74
2023/08/21 03:53:43;;;;;;;29.05;4.80;;;16.20;99.90;;;15.32;100.00;101796.31;4938655;28;20120;-74
2023/08/21 03:56:09;;;;;;;17.38;4.78;;;16.20;99.90;;;15.33;100.00;101796.25;4920391;29;20111;-74
2023/08/21 03:58:35;;;;;;;32.20;5.72;;;16.20;99.90;;;15.33;100.00;101796.25;4924636;29;20059;-74
2023/08/21 04:01:01;;;;;;;19.67;3.97;;;16.20;99.90;;;15.33;100.00;101798.91;4925059;29;20027;-73
2023/08/21 04:03:26;;;;;;;19.67;4.28;;;16.20;99.90;;;15.38;100.00;101798.69;4957360;28;20038;-73
2023/08/21 04:05:56;;;;;;;13.55;4.03;;;16.20;99.90;;;15.43;100.00;101795.78;4911012;29;20106;-73
2023/08/21 04:08:22;;;;;;;16.95;4.07;;;16.30;99.90;;;15.47;100.00;101807.97;4939262;29;20031;-74
2023/08/21 04:10:48;;;;;;;23.25;4.00;;;16.30;99.90;;;15.52;100.00;101816.56;4924445;29;20127;-74
2023/08/21 04:13:14;;;;;;;17.35;4.78;;;16.40;99.90;;;15.55;100.00;101796.03;4925469;29;20035;-73
2023/08/21 04:15:45;;;;;;;12.38;3.97;;;16.40;99.90;;;15.56;100.00;101800.38;4941479;29;20456;-74
2023/08/21 04:18:11;;;;;;;14.45;4.13;;;16.40;99.90;;;15.61;100.00;101802.81;4908345;29;20028;-74
2023/08/21 04:20:37;;;;;;;12.73;3.78;;;16.50;99.90;;;15.66;100.00;101802.56;4923181;29;20514;-74
2023/08/21 04:23:03;;;;;;;15.75;4.95;;;16.50;99.90;;;15.71;100.00;101808.53;4940738;29;20042;-73
2023/08/21 04:25:29;;;;;;;11.02;4.28;;;16.50;99.90;;;15.76;100.00;101804.72;4943425;28;20076;-74
2023/08/21 04:27:55;;;;;;;22.65;5.10;;;16.60;99.90;;;15.83;100.00;101799.09;4924694;29;20106;-74
2023/08/21 04:30:23;;;;;;;19.45;4.50;;;16.60;99.90;;;15.88;100.00;101802.38;4939711;29;20570;-74
2023/08/21 04:32:49;;;;;;;17.02;4.38;;;16.80;99.90;;;15.98;100.00;101817.78;4907169;29;20518;-74
2023/08/21 04:35:15;;;;;;;15.57;4.78;;;16.80;99.90;;;16.16;100.00;101823.91;4959474;28;20115;-73
2023/08/21 04:37:46;;;;;;;16.65;4.88;;;17.00;99.90;;;16.26;100.00;101807.47;4921994;29;20459;-74
2023/08/21 04:40:12;;;;;;;14.48;4.38;;;17.10;99.90;;;16.36;100.00;101808.69;4925749;29;20114;-73
2023/08/21 04:42:40;;;;;;;17.10;4.90;;;17.10;99.90;;;16.44;100.00;101805.66;4923174;29;20503;-74
2023/08/21 04:45:07;;;;;;;21.83;4.47;;;17.20;99.90;;;16.52;100.00;101808.72;4923018;29;20067;-73
2023/08/21 04:47:33;;;;;;;11.48;3.85;;;17.30;99.90;;;16.55;100.00;101812.06;4942499;29;20579;-73
2023/08/21 04:49:58;;;;;;;12.90;4.20;;;17.30;99.90;;;16.62;100.00;101820.56;4926259;29;20063;-74
2023/08/21 04:52:25;;;;;;;14.77;4.15;;;17.40;99.90;;;16.70;100.00;101822.81;4924860;29;20122;-74
2023/08/21 04:54:55;;;;;;;11.25;4.05;;;17.50;99.90;;;16.77;100.00;101816.22;4904486;29;20330;-74
2023/08/21 04:57:21;;;;;;;18.25;4.43;;;17.50;99.90;;;16.79;100.00;101815.19;4924301;29;20047;-74
2023/08/21 04:59:47;;;;;;;10.52;4.18;;;17.60;99.90;;;16.90;100.00;101814.63;4910018;29;20047;-74
2023/08/21 05:02:13;;;;;;;18.35;4.40;;;17.70;99.90;;;17.02;100.00;101819.25;4908800;29;20032;-74
2023/08/21 05:04:39;;;;;;;15.63;4.05;;;17.80;99.90;;;17.18;100.00;101829.03;4924017;29;20481;-74
2023/08/21 05:07:05;;;;;;;11.60;4.25;;;18.20;99.90;;;18.68;100.00;101844.97;4937933;28;20031;-74
2023/08/21 05:09:34;;;;;;;14.18;4.13;;;18.70;99.90;;;18.91;98.32;101840.88;4923687;29;20035;-74
2023/08/21 05:12:00;;;;;;;12.45;4.10;;;19.10;99.90;;;20.00;94.75;101853.25;4924684;29;20039;-74
2023/08/21 05:14:25;;;;;;;13.57;4.13;;;19.50;99.90;;;19.77;90.78;101846.78;4923389;29;20049;-75
2023/08/21 05:16:51;;;;;;;17.25;4.47;;;19.90;99.90;;;20.98;87.20;101847.31;4908190;29;20083;-75
2023/08/21 05:19:17;;;;;;;9.70;3.80;;;20.90;99.90;;;23.26;76.83;101865.47;4920571;29;20036;-74
2023/08/21 05:21:44;;;;;;;18.23;4.13;;;21.60;99.90;;;24.18;74.15;101881.94;4941235;29;20447;-74
2023/08/21 05:24:10;;;;;;;16.48;3.38;;;22.30;99.90;;;23.27;72.68;101868.03;4923553;28;20114;-75
2023/08/21 05:26:37;;;;;;;10.25;3.78;;;22.40;99.90;;;22.34;75.24;101872.84;4942427;29;20086;-75
2023/08/21 05:29:03;;;;;;;14.23;3.50;;;22.40;99.90;;;22.64;74.79;101873.09;4925942;29;20377;-74
2023/08/21 05:31:29;;;;;;;16.50;4.07;;;22.20;99.90;;;22.40;75.36;101870.53;4905567;29;20039;-74
2023/08/21 05:33:55;;;;;;;11.75;3.85;;;22.20;99.90;;;22.14;76.04;101869.88;4923289;29;20050;-74
2023/08/21 05:36:20;;;;;;;12.90;4.38;;;22.10;99.90;;;21.58;78.21;101872.38;4923994;29;20075;-75
2023/08/21 05:38:47;;;;;;;15.63;3.97;;;21.90;99.90;;;21.17;79.87;101861.06;4942165;29;20144;-74
2023/08/21 05:41:14;;;;;;;22.45;4.32;;;21.60;99.90;;;20.87;81.20;101858.78;4921347;29;20031;-74
2023/08/21 05:43:45;;;;;;;15.73;4.40;;;;;;;20.69;82.89;101860.94;4920824;29;20546;-74
2023/08/21 05:46:11;;;;;;;13.43;4.15;;;21.30;99.90;;;20.79;83.21;101864.69;4938712;29;20038;-74
2023/08/21 05:48:37;;;;;;;11.48;4.00;;;21.80;99.90;;;25.17;71.91;101901.09;4924159;29;20502;-75
2023/08/21 05:51:03;;;;;;;16.45;3.92;;;23.10;99.90;;;26.30;65.31;101905.09;4924557;29;20110;-74
2023/08/21 05:53:29;;;;;;;13.25;4.10;;;24.40;99.90;;;28.40;61.08;101932.97;4920481;29;20047;-74
2023/08/21 05:55:54;;;;;;;14.80;4.20;;;25.60;99.90;;;29.30;57.36;101946.13;4904643;29;20531;-74
2023/08/21 05:58:23;;;;;;;11.48;3.95;;;25.80;99.90;;;26.05;62.92;101922.75;4940674;29;20135;-75
2023/08/21 06:00:49;;;;;;;12.07;3.92;;;25.30;99.90;;;24.34;66.93;101916.44;4941083;29;20031;-74
2023/08/21 06:03:14;;;;;;;16.70;4.32;;;24.40;99.90;;;23.21;70.95;101899.94;4939886;29;20090;-75
2023/08/21 06:05:40;;;;;;;11.73;3.60;;;23.70;99.90;;;22.44;74.25;101895.28;4939006;28;20119;-74
2023/08/21 06:08:08;;;;;;;10.98;3.42;;;23.20;99.90;;;22.41;74.12;101892.84;4935688;29;20068;-74
2023/08/21 06:10:34;;;;;;;12.63;3.25;;;22.70;99.90;;;21.84;76.38;101886.47;4908013;29;20507;-74
2023/08/21 06:13:00;;;;;;;21.48;3.63;;;22.70;99.90;;;24.01;72.47;101914.81;4906059;29;20038;-75
2023/08/21 06:15:25;;;;;;;14.30;3.20;;;22.70;99.90;;;25.77;65.34;101920.75;4922953;29;20122;-74
2023/08/21 06:17:51;;;;;;;19.00;3.28;;;24.50;99.90;;;28.14;60.30;101937.50;4918775;29;20043;-75
2023/08/21 06:20:19;;;;;;;10.10;2.70;;;25.40;99.90;;;27.48;60.78;101934.19;4921256;29;20046;-75
2023/08/21 06:22:45;;;;;;;14.10;2.83;;;26.10;99.90;;;27.98;59.79;101940.94;4940472;29;20508;-74
2023/08/21 06:25:11;;;;;;;10.85;2.80;;;26.70;99.90;;;28.40;58.33;101940.22;4922247;29;20122;-75
2023/08/21 06:27:36;;;;;;;11.43;2.63;;;27.20;99.90;;;29.75;56.37;101957.59;4909075;29;20102;-75
2023/08/21 06:30:02;;;;;;;10.23;2.50;;;28.00;99.90;;;30.50;54.11;101964.69;4921303;29;20579;-75
2023/08/21 06:32:37;;;;;;;13.50;2.67;;;28.70;99.90;;;30.43;53.50;101960.00;4921566;29;20656;-74
2023/08/21 06:35:03;;;;;;;17.70;2.63;;;29.10;99.90;;;30.38;54.13;101959.63;4922400;29;20419;-75
2023/08/21 06:37:29;;;;;;;12.18;2.58;;;29.30;99.90;;;29.77;55.77;101952.84;4924039;29;20071;-75
2023/08/21 06:39:55;;;;;;;17.90;2.90;;;29.10;99.90;;;29.68;55.93;101948.38;4921494;29;20115;-74
2023/08/21 06:42:23;;;;;;;16.63;3.00;;;29.20;99.90;;;30.16;54.96;101952.19;4920181;29;20074;-75
2023/08/21 06:44:48;;;;;;;9.40;2.05;;;29.40;99.90;;;30.77;52.59;101961.56;4919821;29;20038;-74
2023/08/21 06:47:14;;;;;;;13.10;2.80;;;29.40;99.90;;;29.88;53.03;101959.81;4941508;29;20039;-74
2023/08/21 06:49:40;;;;;;;11.02;2.85;;;29.60;99.90;;;30.93;51.42;101965.28;4940566;29;20131;-75
2023/08/21 06:52:06;;;;;;;13.55;2.70;;;29.80;99.90;;;30.42;52.12;101962.88;4938870;29;20110;-75
2023/08/21 06:54:31;;;;;;;13.77;2.90;;;29.80;99.90;;;29.78;52.55;101968.13;4920294;29;20503;-75
2023/08/21 06:56:58;;;;;;;12.70;3.00;;;29.10;99.90;;;28.21;54.79;101952.13;4922610;29;20126;-75
2023/08/21 06:59:24;;;;;;;10.88;2.80;;;28.30;99.90;;;26.97;57.19;101946.41;4919349;29;20452;-75
2023/08/21 07:01:51;;;;;;;9.18;2.70;;;27.40;99.90;;;25.88;59.73;101930.59;4921284;29;20082;-75
2023/08/21 07:04:17;;;;;;;20.48;3.30;;;26.60;99.90;;;25.90;61.46;101930.47;4922508;29;20031;-74
2023/08/21 07:06:42;;;;;;;14.15;3.33;;;26.50;99.90;;;26.02;60.07;101921.19;4936785;29;20063;-75
2023/08/21 07:09:08;;;;;;;11.77;3.30;;;26.50;99.90;;;26.18;60.41;101926.88;4907024;29;20039;-75
2023/08/21 07:11:34;;;;;;;12.32;3.13;;;26.50;99.90;;;26.16;60.40;101918.06;4906062;29;20467;-75
2023/08/21 07:14:00;;;;;;;17.15;3.70;;;26.50;99.90;;;26.33;60.91;101918.31;4923164;29;20070;-75
2023/08/21 07:16:28;;;;;;;12.43;3.13;;;26.50;99.90;;;26.51;60.16;101921.94;4920985;29;20110;-75
2023/08/21 07:18:54;;;;;;;12.90;3.33;;;26.90;99.90;;;28.08;57.25;101933.56;4936214;29;20063;-75
2023/08/21 07:21:20;;;;;;;11.70;2.92;;;28.00;99.90;;;29.50;53.57;101956.69;4918767;29;20250;-75
2023/08/21 07:23:46;;;;;;;20.27;3.03;;;28.90;99.90;;;29.68;53.04;101948.38;4921110;29;20023;-75
2023/08/21 07:26:11;;;;;;;11.18;3.00;;;29.30;99.90;;;29.36;52.89;101955.47;4924137;29;20042;-75
2023/08/21 07:28:37;;;;;;;16.63;2.85;;;29.10;99.90;;;28.31;54.79;101949.28;4919436;29;20039;-75
2023/08/21 07:31:03;;;;;;;15.65;2.97;;;28.60;99.90;;;27.45;56.75;101933.63;4938507;29;20114;-75
2023/08/21 07:33:29;;;;;;;16.30;3.15;;;28.00;99.90;;;26.62;58.33;101920.94;4925352;29;20117;-76
2023/08/21 07:36:05;;;;;;;17.05;2.72;;;27.30;99.90;;;26.02;60.21;101912.25;4927594;29;20038;-75
2023/08/21 07:38:31;;;;;;;21.35;2.90;;;27.00;99.90;;;26.82;59.44;101920.88;4943512;29;20099;-76
2023/08/21 07:41:23;;;;;;;13.80;2.45;;;27.50;99.90;;;28.64;55.55;101942.28;4922817;29;20050;-76
2023/08/21 07:43:49;;;;;;;10.77;2.42;;;28.80;99.90;;;29.69;52.93;101950.09;4939736;29;20047;-76
2023/08/21 07:46:18;;;;;;;11.95;2.38;;;29.50;99.90;;;29.31;52.68;101957.81;4925410;29;20165;-75
2023/08/21 07:48:47;;;;;;;14.43;3.03;;;29.90;99.90;;;30.57;50.55;101968.44;4943967;29;20402;-75
2023/08/21 07:51:14;;;;;;;16.77;3.10;;;30.70;99.90;;;31.49;48.23;101982.41;4924448;29;20506;-75
2023/08/21 07:53:39;;;;;;;11.88;2.60;;;31.90;99.90;;;32.79;46.63;101993.25;4924314;29;20035;-76
2023/08/21 07:56:06;;;;;;;15.98;3.15;;;33.00;97.70;;;33.66;44.38;102014.31;4926064;29;20034;-76
2023/08/21 07:58:32;;;;;;;15.45;3.20;;;34.10;97.00;;;34.61;42.51;102014.97;4925922;29;20039;-76
2023/08/21 08:00:58;;;;;;;11.90;2.63;;;35.00;96.20;;;35.50;41.67;102022.41;4906504;29;20121;-76
2023/08/21 08:03:25;;;;;;;11.75;2.90;;;35.70;94.80;;;36.05;40.48;102026.94;4923812;29;20495;-76
2023/08/21 08:05:53;;;;;;;14.77;3.05;;;36.30;93.80;;;36.33;39.94;102026.81;4939966;28;20420;-75
2023/08/21 08:08:19;;;;;;;17.02;3.00;;;36.40;91.30;;;35.94;39.45;102029.28;4925797;29;20027;-76
2023/08/21 08:10:45;;;;;;;8.60;1.85;;;36.30;91.60;;;35.79;39.67;102034.13;4924523;29;20041;-76
2023/08/21 08:13:11;;;;;;;11.55;2.20;;;36.20;91.10;;;35.60;39.38;102040.34;4927442;29;20035;-75
2023/08/21 08:15:37;;;;;;;12.25;2.22;;;36.40;91.40;;;36.38;38.61;102042.63;4911645;29;20122;-76
2023/08/21 08:18:07;;;;;;;13.63;2.33;;;36.60;90.00;;;36.40;38.50;102049.56;4917832;28;20047;-76
2023/08/21 08:20:33;;;;;;;11.50;1.63;;;36.60;89.40;;;36.21;38.09;102061.38;4941801;29;20071;-76
2023/08/21 08:22:58;;;;;;;6.53;1.60;;;36.60;88.40;;;36.33;38.27;102065.19;4924228;29;20473;-76
2023/08/21 08:25:24;;;;;;;7.72;2.03;;;36.50;89.40;;;36.25;38.11;102057.19;4920714;28;20130;-76
2023/08/21 08:27:51;;;;;;;9.75;2.28;;;36.60;89.70;;;36.32;37.70;102058.84;4938805;29;20115;-76
2023/08/21 08:30:17;;;;;;;8.60;2.00;;;36.30;85.30;;;35.53;37.72;102054.00;4922620;29;20046;-76
2023/08/21 08:32:48;;;;;;;8.52;2.15;;;36.10;90.30;;;35.76;37.96;102050.94;4938450;29;20031;-76
2023/08/21 08:35:15;;;;;;;8.43;2.28;;;36.20;90.50;;;36.10;38.27;102057.34;4927639;29;20110;-76
2023/08/21 08:37:42;;;;;;;8.10;2.20;;;36.40;90.40;;;36.40;37.40;102055.06;4926240;29;20113;-76
2023/08/21 08:40:09;;;;;;;8.88;2.20;;;36.40;87.80;;;36.20;38.13;102057.81;4922071;29;20143;-76
2023/08/21 08:42:36;;;;;;;7.22;1.70;;;36.20;87.30;;;35.80;37.88;102056.88;4938371;29;20039;-76
2023/08/21 08:45:06;;;;;;;12.82;2.22;;;35.90;87.10;;;35.12;38.83;102046.66;4908954;29;20032;-76
2023/08/21 08:47:34;;;;;;;9.23;1.73;;;35.50;88.30;;;34.85;39.09;102037.47;4931138;29;20035;-76
2023/08/21 08:50:05;;;;;;;7.43;1.77;;;34.70;87.80;;;33.58;40.93;102025.31;4908893;29;20035;-75
2023/08/21 08:52:37;;;;;;;7.45;1.98;;;33.90;90.10;;;32.50;42.27;102011.22;4923833;28;20055;-73
2023/08/21 08:55:04;;;;;;;8.80;1.90;;;33.00;91.10;;;31.46;43.72;101980.03;4929705;29;20035;-74
2023/08/21 08:57:30;;;;;;;11.45;2.15;;;32.10;91.80;;;30.97;44.73;101963.91;4929604;29;20047;-74
2023/08/21 09:00:03;;;;;;;10.43;1.90;;;31.70;93.00;;;31.21;45.14;101958.38;4942715;29;20492;-74
2023/08/21 09:02:29;;;;;;;7.50;2.08;;;31.50;94.60;;;31.23;46.18;101956.34;4924859;29;20031;-75
2023/08/21 09:04:55;;;;;;;10.90;2.15;;;31.50;94.00;;;31.12;45.95;101945.81;4923256;29;20031;-75
2023/08/21 09:07:21;;;;;;;7.15;1.75;;;31.20;92.70;;;30.61;45.85;101939.91;4939173;29;20051;-75
2023/08/21 09:09:56;;;;;;;9.18;1.67;;;30.90;93.50;;;30.14;46.48;101933.31;4956655;28;20134;-75
2023/08/21 09:12:23;;;;;;;11.43;2.20;;;30.40;94.30;;;29.50;47.98;101921.41;4926770;29;20131;-75
2023/08/21 09:14:49;;;;;;;9.32;1.88;;;30.00;94.30;;;29.08;48.35;101920.44;4899947;28;20043;-75
2023/08/21 09:17:20;;;;;;;6.88;1.35;;;29.60;94.90;;;28.70;49.76;101913.66;4951616;28;20108;-75
2023/08/21 09:19:48;;;;;;;5.93;1.35;;;29.30;95.20;;;28.27;49.67;101905.41;4903518;29;20110;-75
2023/08/21 09:22:19;;;;;;;10.73;2.08;;;29.00;96.20;;;28.38;50.19;101896.19;4906661;29;20094;-75
2023/08/21 09:25:24;;;;;;;7.15;1.90;;;29.10;97.00;;;28.67;50.22;101897.75;4940477;29;20504;-74
2023/08/21 09:27:55;;;;;;;12.23;1.92;;;29.10;95.90;;;28.71;50.26;101891.81;4854406;29;20082;-75
2023/08/21 09:30:26;;;;;;;7.05;1.70;;;29.20;97.10;;;29.01;49.77;101909.41;4868712;29;20049;-75
2023/08/21 09:32:56;;;;;;;6.43;1.75;;;29.30;95.80;;;29.10;49.75;101899.47;4856363;29;20038;-74
2023/08/21 09:35:23;;;;;;;7.72;1.80;;;29.40;96.50;;;29.07;50.29;101891.59;4854621;29;20462;-74
2023/08/21 09:37:52;;;;;;;9.55;2.03;;;29.40;97.40;;;28.90;50.27;101896.16;4846868;29;20471;-75
2023/08/21 09:40:22;;;;;;;11.27;1.88;;;29.30;96.60;;;28.97;49.62;101896.34;4872212;29;20037;-75
2023/08/21 09:42:56;;;;;;;9.30;1.77;;;29.30;96.80;;;28.81;51.05;101889.84;4869112;29;20056;-75
2023/08/21 09:45:23;;;;;;;9.07;2.10;;;29.00;95.70;;;28.03;51.01;101895.28;4854620;29;20056;-75
2023/08/21 09:47:51;;;;;;;6.32;1.75;;;28.50;95.80;;;27.30;51.66;101884.63;4858070;29;20124;-75
2023/08/21 09:50:24;;;;;;;15.65;2.58;;;28.10;97.10;;;27.25;52.33;101881.53;4854392;29;20236;-74
2023/08/21 09:52:53;;;;;;;9.20;1.67;;;28.10;97.70;;;27.49;51.93;101876.34;4869085;29;20221;-75
2023/08/21 09:55:22;;;;;;;5.78;1.83;;;28.10;97.80;;;27.78;52.01;101878.00;4839389;29;21115;-75
2023/08/21 09:57:58;;;;;;;11.13;1.92;;;28.10;97.90;;;27.56;52.51;101872.06;4840998;29;20424;-75
2023/08/21 10:00:31;;;;;;;6.40;1.83;;;27.70;96.50;;;26.70;52.57;101871.59;4858037;29;21330;-75
2023/08/21 10:03:11;;;;;;;7.88;1.52;;;27.40;97.90;;;26.36;53.73;101867.56;4923047;29;20043;-75
2023/08/21 10:05:44;;;;;;;9.18;1.70;;;27.10;98.10;;;26.29;54.27;101860.22;4924507;29;20039;-75